createdAt,value
2022-08-22T01:55:42.486Z,11.96
2022-08-22T02:05:53.947Z,12.82
2022-08-22T02:16:20.771Z,13.28
2022-08-22T02:26:37.587Z,13.54
2022-08-22T02:36:43.492Z,13.65
2022-08-22T02:47:26.806Z,13.70
2022-08-22T02:57:39.424Z,13.75
2022-08-22T04:41:32.800Z,11.62
2022-08-22T05:05:18.569Z,12.37
2022-08-22T05:15:24.576Z,13.08
2022-08-22T05:25:33.533Z,13.57
2022-08-22T05:35:54.547Z,13.89
2022-08-22T05:46:00.881Z,14.11
2022-08-22T05:56:14.114Z,14.29
2022-08-22T06:06:18.403Z,14.35
2022-08-22T06:16:29.275Z,14.53
2022-08-22T06:26:46.086Z,14.58
2022-08-22T06:36:52.775Z,14.59
2022-08-22T06:46:59.664Z,14.62
2022-08-22T06:57:04.896Z,14.69
2022-08-22T07:07:07.143Z,14.72
2022-08-22T07:17:17.955Z,14.71
2022-08-22T07:27:43.114Z,14.81
2022-08-22T07:38:14.662Z,15.00
2022-08-22T07:48:26.154Z,15.15
2022-08-22T07:58:32.012Z,15.19
2022-08-22T08:08:42.962Z,15.17
2022-08-22T08:18:48.478Z,15.18
2022-08-22T08:28:54.492Z,15.32
2022-08-22T08:39:04.434Z,15.40
2022-08-22T08:49:33.702Z,15.55
2022-08-22T09:00:16.847Z,15.56
2022-08-22T09:10:47.918Z,15.47
2022-08-22T09:20:53.014Z,15.39
2022-08-22T09:31:18.715Z,15.59
2022-08-22T09:41:36.820Z,15.77
2022-08-22T09:51:57.653Z,15.72
2022-08-22T10:02:15.647Z,15.58
2022-08-22T10:12:27.410Z,15.40
2022-08-22T10:22:36.541Z,15.40
2022-08-22T10:33:03.515Z,15.42
2022-08-22T10:43:18.057Z,15.47
2022-08-22T10:53:51.171Z,15.48
2022-08-22T11:04:13.173Z,15.31
2022-08-22T11:14:27.278Z,15.33
2022-08-22T11:24:35.592Z,15.33
2022-08-22T11:34:55.920Z,15.24
2022-08-22T11:45:05.690Z,15.14
2022-08-22T11:55:12.334Z,15.20
2022-08-22T12:05:33.560Z,15.26
2022-08-22T12:16:06.544Z,15.31
2022-08-22T12:26:17.906Z,15.48
2022-08-22T12:36:46.431Z,15.59
2022-08-22T12:47:09.323Z,15.64
2022-08-22T12:57:33.984Z,15.68
2022-08-22T13:07:38.569Z,15.67
2022-08-22T13:17:44.783Z,15.72
2022-08-22T13:27:56.493Z,15.86
2022-08-22T13:38:27.657Z,15.98
2022-08-22T13:48:46.760Z,16.12
2022-08-22T13:58:57.358Z,16.15
2022-08-22T14:09:12.557Z,16.05
2022-08-22T14:19:59.111Z,15.97
2022-08-22T14:30:12.441Z,15.98
2022-08-22T14:40:24.474Z,16.00
2022-08-22T14:50:55.819Z,16.08
2022-08-22T15:01:09.865Z,16.20
2022-08-22T15:11:26.056Z,16.29
2022-08-22T15:21:33.896Z,16.33
2022-08-22T15:31:46.787Z,16.22
2022-08-22T15:41:49.409Z,16.19
2022-08-22T15:52:01.219Z,16.18
2022-08-22T16:02:21.094Z,16.17
2022-08-22T16:12:33.570Z,16.12
2022-08-22T16:23:09.029Z,16.10
2022-08-22T16:33:27.758Z,16.12
2022-08-22T16:43:30.168Z,16.11
2022-08-22T16:53:46.111Z,16.08
2022-08-22T17:03:59.432Z,16.05
2022-08-22T17:14:19.935Z,16.03
2022-08-22T17:24:33.817Z,15.98
2022-08-22T17:34:42.134Z,15.99
2022-08-22T17:45:01.251Z,15.93
2022-08-22T17:55:18.181Z,15.88
2022-08-22T18:05:29.453Z,15.86
2022-08-22T18:15:53.713Z,15.88
2022-08-22T18:26:06.752Z,15.85
2022-08-22T18:36:22.756Z,15.82
2022-08-22T18:46:40.078Z,15.78
2022-08-22T18:56:45.280Z,15.79
2022-08-22T19:07:13.904Z,15.79
2022-08-22T19:17:55.424Z,15.80
2022-08-22T19:28:25.842Z,15.79
2022-08-22T19:38:51.278Z,15.77
2022-08-22T19:48:53.508Z,15.76
2022-08-22T19:59:11.577Z,15.75
2022-08-22T20:09:16.720Z,15.75
2022-08-22T20:19:21.409Z,15.75
2022-08-22T20:29:32.276Z,15.71
2022-08-22T20:40:56.331Z,15.75
2022-08-22T20:51:09.581Z,15.81
2022-08-22T21:01:14.278Z,15.86
2022-08-22T21:11:40.374Z,15.87
2022-08-22T21:21:42.491Z,15.88
2022-08-22T22:47:07.420Z,13.53
2022-08-22T22:57:12.199Z,14.41
2022-08-22T23:07:16.007Z,14.91
2022-08-22T23:17:19.220Z,15.23
2022-08-22T23:27:21.341Z,15.42
2022-08-22T23:37:23.553Z,15.51
2022-08-22T23:47:25.696Z,15.59
2022-08-22T23:57:29.465Z,15.64
